Time;durP1;ratioP1;P1;durP2;ratioP2;P2;SDS_P1;SDS_P2;PMS_P1;PMS_P2;Temp;Humidity;BMP_temperature;BMP_pressure;BME280_temperature;BME280_humidity;BME280_pressure;Samples;Min_cycle;Max_cycle;Signal;HPM_P1;HPM_P2
2024/01/27 00:01:13;;;;;;;10.45;2.92;;;;;;;27.61;31.81;103433.94;5075861;28;20032;-43
2024/01/27 00:03:39;;;;;;;12.82;3.17;;;;;;;27.63;31.74;103425.31;5076255;28;20292;-41
2024/01/27 00:06:04;;;;;;;11.40;3.47;;;;;;;27.59;31.75;103426.97;5057413;28;20565;-44
2024/01/27 00:08:30;;;;;;;6.95;3.08;;;;;;;27.60;31.62;103435.03;5057975;28;20052;-45
2024/01/27 00:10:55;;;;;;;8.90;3.40;;;;;;;27.46;31.76;103437.59;5062064;28;20027;-42
2024/01/27 00:13:20;;;;;;;11.70;3.05;;;;;;;27.42;32.05;103425.34;5077787;28;20028;-45
2024/01/27 00:15:46;;;;;;;9.10;2.95;;;;;;;27.48;31.83;103429.78;5077966;28;20345;-44
2024/01/27 00:18:11;;;;;;;6.65;2.55;;;;;;;27.50;31.66;103437.84;5078339;28;20020;-41
2024/01/27 00:20:37;;;;;;;12.82;2.90;;;;;;;27.42;31.89;103438.41;5078172;28;20411;-44
2024/01/27 00:23:03;;;;;;;8.75;3.08;;;;;;;27.37;31.75;103436.47;5079062;28;20039;-42
2024/01/27 00:25:29;;;;;;;10.60;3.00;;;;;;;27.29;32.00;103434.22;5078075;28;20042;-43
2024/01/27 00:27:54;;;;;;;8.10;3.42;;;;;;;27.30;31.93;103427.56;5078508;28;20028;-42
2024/01/27 00:30:19;;;;;;;8.27;2.97;;;;;;;27.35;31.97;103431.16;5078171;28;20488;-44
2024/01/27 00:32:45;;;;;;;9.25;2.90;;;;;;;27.31;31.95;103420.84;5073692;28;20073;-42
2024/01/27 00:35:14;;;;;;;9.55;3.58;;;;;;;27.26;32.18;103426.44;5078274;28;20019;-43
2024/01/27 00:37:40;;;;;;;9.13;3.40;;;;;;;27.29;32.03;103434.22;5080515;28;20020;-47
2024/01/27 00:40:08;;;;;;;9.18;3.40;;;;;;;27.31;31.91;103435.63;5077983;28;20088;-41
2024/01/27 00:42:33;;;;;;;7.53;3.35;;;;;;;27.23;32.05;103436.19;5072226;28;20024;-45
2024/01/27 00:44:59;;;;;;;9.77;3.30;;;;;;;27.20;32.13;103426.44;5076890;28;20385;-47
2024/01/27 00:47:24;;;;;;;8.20;3.45;;;;;;;27.23;31.72;103442.59;5045029;28;20034;-42
2024/01/27 00:49:50;;;;;;;9.15;3.22;;;;;;;27.23;31.77;103441.75;5074549;28;20107;-42
2024/01/27 00:52:15;;;;;;;8.80;3.47;;;;;;;27.18;31.88;103439.78;5068959;28;20029;-42
2024/01/27 00:54:40;;;;;;;7.85;3.03;;;;;;;27.17;32.04;103438.16;5070576;28;20043;-45
2024/01/27 00:57:06;;;;;;;8.10;3.08;;;;;;;27.09;32.12;103447.03;5076964;28;20032;-43
2024/01/27 00:59:31;;;;;;;7.63;3.10;;;;;;;27.12;32.28;103448.44;5080702;28;20045;-42
2024/01/27 01:01:57;;;;;;;9.70;3.33;;;;;;;27.10;31.94;103445.94;5062090;28;20056;-43
2024/01/27 01:04:22;;;;;;;7.68;2.85;;;;;;;27.15;32.12;103442.28;5079868;28;20032;-43
2024/01/27 01:06:48;;;;;;;10.27;3.10;;;;;;;27.04;32.10;103450.66;5077949;28;20036;-42
2024/01/27 01:09:13;;;;;;;11.65;3.50;;;;;;;27.06;31.88;103439.22;5081282;28;20544;-44
2024/01/27 01:11:39;;;;;;;22.35;3.38;;;;;;;27.06;32.14;103445.66;5075762;28;20085;-43
2024/01/27 01:14:04;;;;;;;12.90;3.50;;;;;;;26.99;32.02;103442.31;5070274;28;20024;-42
2024/01/27 01:16:29;;;;;;;12.70;3.25;;;;;;;26.95;32.13;103449.50;5080312;28;20439;-43
2024/01/27 01:18:55;;;;;;;11.15;2.97;;;;;;;26.95;32.10;103448.69;5081319;28;20031;-42
2024/01/27 01:21:20;;;;;;;9.75;3.42;;;;;;;26.87;32.35;103442.56;5074356;28;20119;-44
2024/01/27 01:23:46;;;;;;;14.00;3.30;;;;;;;26.88;32.24;103444.22;5061860;28;20496;-44
2024/01/27 01:26:11;;;;;;;9.00;3.15;;;;;;;26.93;32.04;103446.19;5077833;28;20111;-44
2024/01/27 01:28:37;;;;;;;10.38;3.38;;;;;;;26.88;32.38;103441.44;5078492;28;20043;-43
2024/01/27 01:31:02;;;;;;;11.02;3.60;;;;;;;26.83;31.87;103440.59;5079260;28;20152;-44
2024/01/27 01:33:27;;;;;;;10.23;3.20;;;;;;;26.83;31.98;103449.78;5076833;28;20028;-44
2024/01/27 01:35:53;;;;;;;8.60;3.33;;;;;;;26.75;32.04;103451.16;5065523;28;20444;-44
2024/01/27 01:38:18;;;;;;;9.90;3.40;;;;;;;26.78;32.29;103438.66;5060072;28;20062;-43
2024/01/27 01:40:44;;;;;;;12.25;3.75;;;;;;;26.82;32.03;103442.56;5058991;28;20024;-42
2024/01/27 01:43:11;;;;;;;8.23;3.30;;;;;;;26.73;31.92;103442.22;5071525;28;20540;-42
2024/01/27 01:45:37;;;;;;;8.75;2.97;;;;;;;26.75;32.20;103437.25;5053633;28;20046;-45
2024/01/27 01:48:02;;;;;;;8.82;3.60;;;;;;;26.79;31.92;103442.25;5078229;28;20020;-42
2024/01/27 01:50:28;;;;;;;7.45;2.85;;;;;;;26.73;31.94;103442.22;5056575;28;20035;-41
2024/01/27 01:52:53;;;;;;;9.48;3.08;;;;;;;26.69;32.11;103440.25;5049662;28;20181;-42
2024/01/27 01:55:19;;;;;;;8.48;3.08;;;;;;;26.58;32.38;103434.69;5083429;28;20036;-41
2024/01/27 01:57:44;;;;;;;8.02;2.95;;;;;;;26.62;32.13;103451.63;5049792;28;20037;-42
2024/01/27 02:00:11;;;;;;;9.55;2.97;;;;;;;26.55;32.02;103446.34;5081684;28;20111;-43
2024/01/27 02:02:36;;;;;;;8.68;3.00;;;;;;;26.46;32.25;103455.50;5055765;28;20043;-42
2024/01/27 02:05:01;;;;;;;9.82;3.20;;;;;;;26.49;32.52;103447.44;5081197;28;20111;-42
2024/01/27 02:07:27;;;;;;;6.20;2.88;;;;;;;26.55;32.28;103451.09;5064748;28;20536;-43
2024/01/27 02:09:52;;;;;;;7.05;3.08;;;;;;;26.51;32.05;103464.69;5068851;28;20454;-43
2024/01/27 02:12:18;;;;;;;15.52;3.38;;;;;;;26.47;32.48;103471.06;5058923;28;20062;-43
2024/01/27 02:14:43;;;;;;;11.60;3.60;;;;;;;26.45;32.39;103463.00;5070391;28;20036;-43
2024/01/27 02:17:08;;;;;;;7.15;2.83;;;;;;;26.49;32.46;103468.88;5083282;28;20020;-42
2024/01/27 02:19:34;;;;;;;7.88;2.88;;;;;;;26.42;32.49;103469.09;5068208;28;20119;-43
2024/01/27 02:21:59;;;;;;;8.52;2.78;;;;;;;26.51;32.31;103464.69;5057160;28;20169;-43
2024/01/27 02:24:25;;;;;;;10.88;3.00;;;;;;;26.39;32.29;103459.38;5075316;28;20031;-45
2024/01/27 02:26:50;;;;;;;11.55;4.10;;;;;;;26.41;32.45;103461.88;5083135;28;20024;-44
2024/01/27 02:29:16;;;;;;;7.82;2.72;;;;;;;26.37;32.18;103469.09;5072000;28;20031;-41
2024/01/27 02:31:41;;;;;;;8.05;3.05;;;;;;;26.41;32.38;103471.06;5076699;28;20111;-41
2024/01/27 02:34:06;;;;;;;6.80;2.88;;;;;;;26.46;32.40;103473.00;5082395;28;20024;-42
2024/01/27 02:36:32;;;;;;;6.85;2.80;;;;;;;26.46;32.34;103463.84;5072750;28;20033;-45
2024/01/27 02:38:57;;;;;;;8.55;2.58;;;;;;;26.47;32.16;103459.94;5079278;28;20028;-40
2024/01/27 02:41:22;;;;;;;6.80;2.53;;;;;;;26.37;32.11;103455.19;5075270;28;20120;-41
2024/01/27 02:43:48;;;;;;;9.38;2.78;;;;;;;26.43;32.04;103452.13;5076565;28;20514;-40
2024/01/27 02:46:15;;;;;;;6.97;2.75;;;;;;;26.38;32.03;103457.69;5076973;28;20048;-40
2024/01/27 02:48:44;;;;;;;7.32;2.75;;;;;;;26.38;32.35;103462.44;5078901;28;20442;-42
2024/01/27 02:51:10;;;;;;;9.85;2.67;;;;;;;26.40;31.98;103457.41;5073629;28;20020;-42
2024/01/27 02:53:35;;;;;;;6.35;2.75;;;;;;;26.29;32.20;103462.13;5085133;28;20645;-40
2024/01/27 02:56:01;;;;;;;10.27;3.28;;;;;;;26.31;32.32;103457.09;5081981;28;20377;-40
2024/01/27 02:58:26;;;;;;;7.05;2.85;;;;;;;26.38;32.13;103462.44;5079145;28;20495;-41
2024/01/27 03:00:52;;;;;;;6.57;2.30;;;;;;;26.32;32.34;103469.91;5070549;28;20107;-40
2024/01/27 03:03:17;;;;;;;7.75;2.70;;;;;;;26.35;32.17;103471.28;5085307;28;20077;-42
2024/01/27 03:05:43;;;;;;;6.13;2.58;;;;;;;26.29;32.51;103477.94;5059762;28;20477;-40
2024/01/27 03:08:08;;;;;;;8.95;2.83;;;;;;;26.21;32.40;103474.56;5066987;28;20021;-40
2024/01/27 03:10:34;;;;;;;8.32;2.78;;;;;;;26.17;32.56;103478.16;5078610;28;20489;-42
2024/01/27 03:12:59;;;;;;;7.05;2.45;;;;;;;26.25;32.34;103470.16;5078082;28;20024;-41
2024/01/27 03:15:25;;;;;;;10.60;3.35;;;;;;;26.29;32.33;103473.22;5083020;28;20451;-42
2024/01/27 03:17:50;;;;;;;8.57;2.75;;;;;;;26.28;32.19;103466.00;5079107;28;20511;-39
2024/01/27 03:20:15;;;;;;;7.00;2.83;;;;;;;26.27;32.02;103461.53;5076039;28;20032;-42
2024/01/27 03:22:41;;;;;;;8.63;2.90;;;;;;;26.27;32.06;103473.47;5070342;28;20024;-41
2024/01/27 03:25:08;;;;;;;8.38;2.78;;;;;;;26.32;31.70;103475.47;5080375;28;20055;-42
2024/01/27 03:27:33;;;;;;;7.60;2.67;;;;;;;26.46;31.35;103477.75;5075050;28;20024;-41
2024/01/27 03:30:01;;;;;;;7.60;2.50;;;;;;;26.40;31.88;103474.94;5076282;28;20055;-41
2024/01/27 03:32:26;;;;;;;6.75;2.45;;;;;;;26.27;32.02;103475.44;5055131;28;20032;-45
2024/01/27 03:34:51;;;;;;;6.68;2.35;;;;;;;26.23;31.73;103474.31;5084508;28;20032;-42
2024/01/27 03:37:17;;;;;;;6.63;2.47;;;;;;;26.23;32.14;103471.53;5072655;28;20025;-45
2024/01/27 03:39:42;;;;;;;6.60;2.58;;;;;;;26.16;32.20;103476.50;5084152;28;20058;-42
2024/01/27 03:42:08;;;;;;;9.07;3.22;;;;;;;26.22;31.87;103478.19;5072781;28;20020;-41
2024/01/27 03:44:33;;;;;;;6.15;2.20;;;;;;;26.14;32.22;103473.97;5054367;28;20028;-42
2024/01/27 03:46:59;;;;;;;9.65;2.97;;;;;;;26.20;32.11;103458.16;5071767;28;20089;-43
2024/01/27 03:49:24;;;;;;;8.52;2.60;;;;;;;26.07;32.20;103467.81;5065847;28;20455;-40
2024/01/27 03:51:49;;;;;;;6.40;2.60;;;;;;;25.99;32.27;103460.81;5070840;28;20039;-40
2024/01/27 03:54:15;;;;;;;9.30;3.08;;;;;;;26.00;32.11;103464.44;5080462;28;20024;-41
2024/01/27 03:56:43;;;;;;;6.80;2.42;;;;;;;25.99;32.09;103458.03;5078052;28;20116;-41
2024/01/27 03:59:10;;;;;;;10.70;2.80;;;;;;;25.96;32.43;103458.59;5070365;28;20090;-40
2024/01/27 04:01:36;;;;;;;8.52;2.97;;;;;;;25.94;32.51;103458.84;5069497;28;20149;-42
2024/01/27 04:04:01;;;;;;;10.70;3.10;;;;;;;25.91;32.15;103464.94;5080822;28;20128;-42
2024/01/27 04:06:26;;;;;;;6.55;2.45;;;;;;;25.98;32.31;103459.13;5071626;28;20044;-43
2024/01/27 04:08:52;;;;;;;6.75;2.70;;;;;;;26.15;31.98;103460.94;5081476;28;20024;-42
2024/01/27 04:11:21;;;;;;;7.28;2.80;;;;;;;26.31;31.86;103464.63;5073869;28;20370;-43
2024/01/27 04:13:48;;;;;;;8.60;2.88;;;;;;;26.21;31.67;103471.78;5073519;28;20054;-43
2024/01/27 04:16:14;;;;;;;9.05;2.55;;;;;;;26.39;31.58;103478.81;5050850;28;20509;-41
2024/01/27 04:18:39;;;;;;;8.35;2.90;;;;;;;26.33;31.91;103482.69;5080637;28;20019;-40
2024/01/27 04:21:05;;;;;;;9.57;2.55;;;;;;;26.46;31.56;103484.13;5053231;28;20074;-40
2024/01/27 04:23:30;;;;;;;7.97;3.08;;;;;;;26.27;31.87;103481.00;5051536;28;20117;-40
2024/01/27 04:25:55;;;;;;;9.43;2.92;;;;;;;26.22;31.63;103476.25;5082498;28;20063;-42
2024/01/27 04:28:21;;;;;;;6.88;3.00;;;;;;;26.18;31.78;103480.69;5077659;28;20024;-41
2024/01/27 04:30:46;;;;;;;10.65;2.95;;;;;;;26.11;31.79;103480.09;5079184;28;20052;-43
2024/01/27 04:33:12;;;;;;;10.00;2.85;;;;;;;26.00;32.18;103467.22;5064848;28;20385;-42
2024/01/27 04:35:37;;;;;;;11.15;3.28;;;;;;;25.97;32.00;103462.19;5079196;28;20077;-41
2024/01/27 04:38:03;;;;;;;6.70;2.78;;;;;;;25.96;32.00;103461.38;5073534;28;20569;-42
2024/01/27 04:40:29;;;;;;;6.22;2.90;;;;;;;25.91;31.92;103456.59;5080327;28;20032;-45
2024/01/27 04:42:54;;;;;;;8.63;3.00;;;;;;;25.95;31.97;103466.06;5055429;28;20028;-41
2024/01/27 04:45:19;;;;;;;9.88;3.03;;;;;;;25.89;32.25;103469.09;5067608;28;20432;-43
2024/01/27 04:47:45;;;;;;;8.65;3.28;;;;;;;25.88;32.22;103457.13;5083340;28;20382;-41
2024/01/27 04:50:10;;;;;;;8.10;2.72;;;;;;;25.78;32.04;103457.09;5074622;28;20057;-42
2024/01/27 04:52:35;;;;;;;5.95;2.80;;;;;;;25.72;32.51;103460.94;5070624;28;20512;-41
2024/01/27 04:55:02;;;;;;;6.80;2.88;;;;;;;25.75;32.20;103468.72;5078423;28;20036;-40
2024/01/27 04:57:28;;;;;;;7.18;2.83;;;;;;;25.68;32.50;103470.88;5079148;28;20544;-41
2024/01/27 04:59:53;;;;;;;11.57;3.20;;;;;;;25.70;32.13;103475.09;5080803;28;20105;-41
2024/01/27 05:02:19;;;;;;;6.55;2.92;;;;;;;25.73;32.06;103454.28;5082847;28;20034;-41
2024/01/27 05:04:44;;;;;;;9.10;3.25;;;;;;;25.66;32.12;103465.59;5075425;28;20525;-42
2024/01/27 05:07:10;;;;;;;12.38;3.50;;;;;;;25.72;32.37;103466.47;5064532;28;20512;-42
2024/01/27 05:09:35;;;;;;;9.70;3.67;;;;;;;25.73;31.99;103473.72;5075482;28;20072;-41
2024/01/27 05:12:01;;;;;;;9.80;3.05;;;;;;;25.71;32.22;103481.47;5078603;28;20108;-44
2024/01/27 05:14:26;;;;;;;10.30;3.40;;;;;;;25.73;31.95;103470.94;5081800;28;20039;-41
2024/01/27 05:16:51;;;;;;;8.80;3.00;;;;;;;25.68;32.17;103463.41;5073178;28;20472;-41
2024/01/27 05:19:17;;;;;;;7.93;3.08;;;;;;;25.79;32.40;103472.66;5078677;28;20104;-41
2024/01/27 05:21:43;;;;;;;8.52;3.38;;;;;;;26.10;31.55;103470.91;5079637;28;20028;-41
2024/01/27 05:24:09;;;;;;;7.30;2.95;;;;;;;25.99;31.84;103474.69;5076466;28;20027;-42
2024/01/27 05:26:34;;;;;;;12.38;3.70;;;;;;;25.95;31.77;103476.34;5070612;28;20437;-41
2024/01/27 05:28:59;;;;;;;7.07;3.42;;;;;;;25.93;31.98;103473.84;5083099;28;20492;-42
2024/01/27 05:31:28;;;;;;;10.52;3.17;;;;;;;25.95;31.80;103468.03;5081817;28;20036;-42
2024/01/27 05:33:53;;;;;;;5.70;2.85;;;;;;;26.02;32.11;103465.00;5060263;28;20114;-44
2024/01/27 05:36:19;;;;;;;9.07;3.30;;;;;;;26.12;32.01;103476.22;5064485;28;20028;-43
2024/01/27 05:38:44;;;;;;;8.20;3.25;;;;;;;26.22;32.13;103480.97;5071742;28;20475;-42
2024/01/27 05:41:09;;;;;;;6.68;2.83;;;;;;;26.32;31.67;103489.34;5075421;28;20035;-41
2024/01/27 05:43:35;;;;;;;9.80;3.30;;;;;;;26.48;31.73;103490.25;5072635;28;20838;-40
2024/01/27 05:46:00;;;;;;;7.90;3.33;;;;;;;26.56;31.85;103486.97;5082945;28;20149;-40
2024/01/27 05:48:26;;;;;;;7.40;2.97;;;;;;;26.58;31.71;103476.41;5085032;28;20024;-41
2024/01/27 05:50:58;;;;;;;6.32;2.90;;;;;;;26.72;32.03;103475.84;5084326;28;20095;-41
2024/01/27 05:53:24;;;;;;;8.80;2.97;;;;;;;26.81;32.20;103468.69;5080512;28;20036;-47
2024/01/27 05:55:49;;;;;;;7.13;3.13;;;;;;;26.90;31.50;103466.19;5081776;28;20048;-42
2024/01/27 05:58:15;;;;;;;9.50;3.10;;;;;;;26.97;31.80;103475.13;5081535;28;20505;-43
2024/01/27 06:00:43;;;;;;;8.20;3.22;;;;;;;27.08;31.95;103475.16;5080326;28;20033;-41
2024/01/27 06:03:09;;;;;;;9.10;3.40;;;;;;;27.27;31.43;103467.94;5081586;28;20560;-43
2024/01/27 06:05:34;;;;;;;9.38;3.13;;;;;;;27.45;31.33;103463.75;5078619;28;20030;-43
2024/01/27 06:08:00;;;;;;;8.02;3.17;;;;;;;27.52;31.28;103460.72;5072691;28;20024;-41
2024/01/27 06:10:25;;;;;;;8.45;3.13;;;;;;;27.61;30.90;103459.00;5082356;28;20058;-43
2024/01/27 06:12:50;;;;;;;6.53;3.20;;;;;;;27.65;31.10;103450.91;5084877;28;20111;-44
2024/01/27 06:15:16;;;;;;;9.80;3.28;;;;;;;27.54;31.29;103450.94;5084414;28;20031;-46
2024/01/27 06:17:41;;;;;;;10.40;3.40;;;;;;;27.50;31.38;103444.25;5074163;28;20026;-49
2024/01/27 06:20:07;;;;;;;5.75;2.60;;;;;;;27.39;31.38;103449.00;5084021;28;20131;-44
2024/01/27 06:22:33;;;;;;;7.90;3.15;;;;;;;27.28;31.69;103452.06;5079567;28;20492;-41
2024/01/27 06:24:58;;;;;;;8.55;3.50;;;;;;;27.25;31.29;103455.38;5082202;28;20024;-43
2024/01/27 06:27:24;;;;;;;6.95;2.63;;;;;;;27.17;31.39;103462.34;5082510;28;20067;-45
2024/01/27 06:29:49;;;;;;;6.05;2.95;;;;;;;27.17;31.69;103471.53;5084077;28;20436;-42
2024/01/27 06:32:15;;;;;;;5.60;2.70;;;;;;;27.17;31.38;103479.91;5063781;28;20032;-44
2024/01/27 06:34:41;;;;;;;9.23;2.80;;;;;;;27.10;31.68;103487.69;5076701;28;20023;-43
2024/01/27 06:37:06;;;;;;;7.97;2.80;;;;;;;27.09;31.71;103487.94;5080280;28;20455;-42
2024/01/27 06:39:31;;;;;;;6.97;3.40;;;;;;;27.08;31.57;103489.06;5077989;28;20085;-42
2024/01/27 06:41:57;;;;;;;9.02;3.38;;;;;;;27.03;31.86;103493.50;5078250;28;20168;-45
2024/01/27 06:44:22;;;;;;;8.57;3.60;;;;;;;27.01;31.57;103495.72;5079738;28;20503;-43
2024/01/27 06:46:49;;;;;;;6.90;3.10;;;;;;;26.87;31.64;103502.94;5080121;28;20030;-42
2024/01/27 06:49:16;;;;;;;7.50;3.55;;;;;;;26.79;31.75;103492.34;5082054;28;20493;-44
2024/01/27 06:51:41;;;;;;;7.22;3.47;;;;;;;26.75;31.78;103495.66;5083210;28;20031;-44
2024/01/27 06:54:07;;;;;;;8.32;3.08;;;;;;;26.78;31.89;103491.50;5065403;28;20495;-42
2024/01/27 06:56:32;;;;;;;9.32;3.35;;;;;;;26.73;31.71;103485.88;5083295;28;20392;-43
2024/01/27 06:58:57;;;;;;;5.97;2.97;;;;;;;26.75;32.01;103497.63;5079927;28;20133;-45
2024/01/27 07:01:23;;;;;;;10.50;3.30;;;;;;;26.77;32.04;103497.34;5080253;28;20385;-43
2024/01/27 07:03:48;;;;;;;5.55;2.97;;;;;;;26.76;31.68;103490.94;5068222;28;20029;-44
2024/01/27 07:06:14;;;;;;;5.53;3.30;;;;;;;26.79;31.75;103504.28;5066561;28;20286;-43
2024/01/27 07:08:39;;;;;;;5.78;3.10;;;;;;;26.83;31.86;103491.53;5077508;28;20019;-44
2024/01/27 07:11:04;;;;;;;9.40;3.33;;;;;;;26.83;31.60;103491.53;5083873;28;20020;-43
2024/01/27 07:13:30;;;;;;;7.40;3.17;;;;;;;26.82;31.59;103486.22;5079794;28;20032;-41
2024/01/27 07:15:58;;;;;;;7.57;3.40;;;;;;;26.84;31.61;103481.22;5084040;28;20024;-43
2024/01/27 07:18:24;;;;;;;7.70;3.45;;;;;;;26.80;31.57;103491.22;5075404;28;20029;-44
2024/01/27 07:20:50;;;;;;;10.82;3.53;;;;;;;26.75;31.58;103494.84;5081378;28;20031;-43
2024/01/27 07:23:16;;;;;;;7.00;3.20;;;;;;;26.71;31.54;103502.03;5080603;28;20073;-43
2024/01/27 07:25:42;;;;;;;6.50;3.10;;;;;;;26.62;31.79;103495.31;5080578;28;20052;-45
2024/01/27 07:28:07;;;;;;;7.80;3.20;;;;;;;26.61;31.86;103500.06;5081316;28;20024;-47
2024/01/27 07:30:33;;;;;;;7.22;3.40;;;;;;;26.46;31.74;103508.31;5077878;28;20024;-46
2024/01/27 07:32:58;;;;;;;7.43;3.30;;;;;;;26.50;31.96;103509.44;5076682;28;20097;-44
2024/01/27 07:35:23;;;;;;;9.43;3.42;;;;;;;26.46;31.66;103499.97;5081761;28;20053;-46
2024/01/27 07:37:49;;;;;;;8.95;3.08;;;;;;;26.49;31.51;103499.44;5083841;28;20028;-43
2024/01/27 07:40:14;;;;;;;8.93;3.20;;;;;;;26.42;31.86;103500.53;5065268;28;20171;-42
2024/01/27 07:42:41;;;;;;;7.30;3.10;;;;;;;26.46;31.77;103495.25;5059548;28;20091;-41
2024/01/27 07:45:08;;;;;;;11.75;3.60;;;;;;;26.43;31.54;103493.84;5082101;28;20400;-43
2024/01/27 07:47:34;;;;;;;11.57;3.72;;;;;;;26.44;31.67;103489.13;5061926;28;20243;-42
2024/01/27 07:49:59;;;;;;;6.45;3.00;;;;;;;26.40;31.67;103491.63;5084452;28;20020;-42
2024/01/27 07:52:24;;;;;;;10.52;3.38;;;;;;;26.45;31.70;103490.81;5060691;28;20028;-42
2024/01/27 07:54:50;;;;;;;8.55;3.42;;;;;;;26.49;31.39;103496.66;5081942;28;20031;-44
2024/01/27 07:57:15;;;;;;;8.65;2.95;;;;;;;26.52;31.54;103487.78;5055859;28;20043;-43
2024/01/27 07:59:41;;;;;;;9.63;3.33;;;;;;;26.55;31.29;103490.84;5076485;28;20071;-42
2024/01/27 08:02:13;;;;;;;12.02;4.15;;;;;;;26.49;31.34;103486.38;5079307;28;20050;-42
2024/01/27 08:04:38;;;;;;;11.05;3.58;;;;;;;26.42;31.30;103494.97;5055136;28;20051;-42
2024/01/27 08:07:09;;;;;;;9.73;3.42;;;;;;;26.42;31.27;103496.91;5069744;28;20012;-43
2024/01/27 08:09:35;;;;;;;8.43;3.42;;;;;;;26.41;31.41;103496.09;5075239;28;20028;-41
2024/01/27 08:12:01;;;;;;;7.65;3.55;;;;;;;26.44;31.60;103497.47;5082011;28;20099;-41
2024/01/27 08:14:27;;;;;;;8.68;3.40;;;;;;;26.39;31.27;103503.03;5076375;28;20517;-42
2024/01/27 08:16:53;;;;;;;8.48;3.20;;;;;;;26.46;31.56;103505.53;5079738;28;20102;-44
2024/01/27 08:19:20;;;;;;;9.13;3.92;;;;;;;26.38;31.66;103512.47;5072357;28;20527;-45
2024/01/27 08:21:46;;;;;;;9.35;3.90;;;;;;;26.39;31.50;103509.41;5080694;28;20051;-42
2024/01/27 08:24:13;;;;;;;8.35;3.40;;;;;;;26.45;31.56;103509.44;5080018;28;20109;-42
2024/01/27 08:26:38;;;;;;;7.28;3.20;;;;;;;26.51;31.38;103508.34;5074642;28;20043;-43
2024/01/27 08:29:03;;;;;;;6.70;3.33;;;;;;;26.50;31.31;103515.84;5061595;28;20020;-42
2024/01/27 08:31:29;;;;;;;7.28;3.05;;;;;;;26.58;31.06;103522.84;5081946;28;20028;-45
2024/01/27 08:33:54;;;;;;;6.05;3.35;;;;;;;26.66;31.11;103529.81;5081335;28;20081;-42
2024/01/27 08:36:19;;;;;;;6.22;3.22;;;;;;;26.72;31.20;103526.78;5080681;28;20478;-44
2024/01/27 08:38:45;;;;;;;6.80;3.13;;;;;;;26.78;31.18;103527.69;5079894;28;20024;-43
2024/01/27 08:41:10;;;;;;;7.03;3.47;;;;;;;26.82;30.90;103536.28;5075893;28;20032;-43
2024/01/27 08:43:35;;;;;;;8.00;3.15;;;;;;;26.85;31.24;103532.97;5075504;28;20032;-42
2024/01/27 08:46:01;;;;;;;7.57;3.30;;;;;;;26.75;31.28;103533.78;5079580;28;20018;-43
2024/01/27 08:48:26;;;;;;;11.18;3.88;;;;;;;26.75;31.00;103531.81;5060801;28;20031;-43
2024/01/27 08:50:52;;;;;;;50.80;5.85;;;;;;;26.82;31.38;103536.28;5082560;28;20205;-43
2024/01/27 08:53:17;;;;;;;97.50;5.68;;;;;;;27.01;31.38;103531.88;5073762;28;20032;-39
2024/01/27 08:55:42;;;;;;;13.77;3.63;;;;;;;27.13;31.46;103530.81;5073685;28;20040;-41
2024/01/27 08:58:08;;;;;;;12.95;3.50;;;;;;;27.21;31.44;103521.91;5081381;28;20103;-44
2024/01/27 09:00:33;;;;;;;10.93;3.55;;;;;;;27.24;31.62;103518.56;5078536;28;20032;-41
2024/01/27 09:02:58;;;;;;;13.60;4.05;;;;;;;27.32;31.72;103515.25;5067974;28;20025;-40
2024/01/27 09:05:24;;;;;;;13.88;3.20;;;;;;;27.32;31.83;103520.81;5079774;28;20038;-40
2024/01/27 09:07:49;;;;;;;31.65;4.53;;;;;;;27.38;31.73;103528.06;5081372;28;20048;-43
2024/01/27 09:10:15;;;;;;;10.70;4.63;;;;;;;27.45;30.98;103535.34;5075077;28;20041;-42
2024/01/27 09:12:41;;;;;;;9.80;4.15;;;;;;;27.42;31.06;103541.44;5081346;28;20035;-44
2024/01/27 09:15:07;;;;;;;13.98;4.40;;;;;;;27.50;31.00;103536.16;5080597;28;20102;-43
2024/01/27 09:17:32;;;;;;;10.95;3.88;;;;;;;27.51;30.67;103537.84;5083413;28;20177;-44
2024/01/27 09:19:58;;;;;;;8.23;3.75;;;;;;;27.63;30.66;103540.34;5078768;28;20021;-45
2024/01/27 09:22:23;;;;;;;12.05;4.32;;;;;;;27.66;30.53;103538.94;5086373;28;20025;-46
2024/01/27 09:24:48;;;;;;;7.75;3.97;;;;;;;27.63;30.42;103540.34;5088124;28;20103;-43
2024/01/27 09:27:14;;;;;;;8.98;3.95;;;;;;;27.65;30.47;103546.47;5083941;28;20130;-41
2024/01/27 09:29:39;;;;;;;9.75;3.90;;;;;;;27.66;30.49;103542.59;5081518;28;20043;-43
2024/01/27 09:32:05;;;;;;;8.15;4.18;;;;;;;27.64;30.37;103553.16;5082466;28;20039;-44
2024/01/27 09:34:30;;;;;;;14.68;4.15;;;;;;;27.68;30.46;103550.66;5078093;28;20521;-41
2024/01/27 09:36:56;;;;;;;11.32;3.97;;;;;;;27.68;30.23;103537.56;5083010;28;20031;-41
2024/01/27 09:39:21;;;;;;;8.90;3.92;;;;;;;27.79;30.20;103534.78;5075246;28;20076;-45
2024/01/27 09:41:48;;;;;;;11.32;4.10;;;;;;;27.85;29.81;103548.41;5074811;28;20016;-41
2024/01/27 09:44:18;;;;;;;7.60;4.03;;;;;;;27.91;29.67;103549.25;5076152;28;20052;-41
2024/01/27 09:46:44;;;;;;;9.05;3.67;;;;;;;27.96;29.75;103565.94;5082314;28;20032;-41
2024/01/27 09:49:11;;;;;;;8.40;3.72;;;;;;;28.04;29.66;103558.97;5080271;28;20048;-42
2024/01/27 09:51:37;;;;;;;61.42;7.07;;;;;;;28.03;29.63;103565.66;5081637;28;20051;-45
2024/01/27 09:54:02;;;;;;;10.10;3.85;;;;;;;27.94;29.48;103567.34;5083696;28;20450;-43
2024/01/27 09:56:29;;;;;;;8.98;4.15;;;;;;;27.93;29.60;103566.50;5084759;28;20103;-46
2024/01/27 09:58:55;;;;;;;15.77;4.78;;;;;;;27.93;29.65;103566.50;5080678;28;20370;-42
2024/01/27 10:01:21;;;;;;;22.13;4.80;;;;;;;28.00;29.79;103558.69;5081171;28;20763;-43
2024/01/27 10:03:47;;;;;;;121.72;8.18;;;;;;;28.13;29.54;103576.84;5087158;28;20036;-44
2024/01/27 10:06:14;;;;;;;16.70;5.15;;;;;;;28.03;29.49;103576.81;5082460;28;20031;-44
2024/01/27 10:08:39;;;;;;;21.65;5.13;;;;;;;28.07;29.43;103579.91;5078558;28;20036;-39
2024/01/27 10:11:09;;;;;;;17.33;5.30;;;;;;;28.05;29.66;103580.19;5087676;28;20020;-39
2024/01/27 10:13:35;;;;;;;37.00;5.65;;;;;;;28.07;29.67;103577.09;5058892;28;20336;-45
2024/01/27 10:16:05;;;;;;;16.73;4.93;;;;;;;28.06;29.57;103578.25;5079905;28;20024;-41
2024/01/27 10:18:31;;;;;;;14.20;4.90;;;;;;;28.09;29.32;103581.28;5086672;28;20059;-42
2024/01/27 10:20:57;;;;;;;12.88;4.53;;;;;;;28.11;29.63;103575.44;5069938;28;20128;-44
2024/01/27 10:23:23;;;;;;;11.90;4.93;;;;;;;28.14;29.58;103574.88;5073646;28;20020;-42
2024/01/27 10:25:49;;;;;;;9.23;4.53;;;;;;;28.12;29.66;103575.16;5068276;28;20028;-42
2024/01/27 10:28:14;;;;;;;9.63;4.10;;;;;;;28.16;29.68;103572.66;5084678;28;20030;-39
2024/01/27 10:30:40;;;;;;;10.18;4.40;;;;;;;28.10;30.27;103566.22;5087963;28;20685;-41
2024/01/27 10:33:08;;;;;;;10.23;4.25;;;;;;;28.22;29.86;103567.91;5086435;28;20024;-42
2024/01/27 10:35:33;;;;;;;8.75;3.92;;;;;;;28.27;29.65;103563.13;5079071;28;20708;-44
2024/01/27 10:37:58;;;;;;;12.38;4.95;;;;;;;28.32;30.06;103577.06;5078806;28;20046;-40
2024/01/27 10:40:24;;;;;;;13.30;4.35;;;;;;;28.31;29.98;103575.41;5086752;28;20039;-40
2024/01/27 10:43:06;;;;;;;15.93;5.00;;;;;;;28.29;29.98;103586.00;5081855;28;20023;-43
2024/01/27 10:45:39;;;;;;;58.85;6.57;;;;;;;28.29;29.74;103586.00;5085127;28;20069;-44
2024/01/27 10:48:07;;;;;;;25.30;7.50;;;;;;;28.22;29.90;103582.66;5082777;28;20023;-44
2024/01/27 10:50:38;;;;;;;29.75;8.32;;;;;;;28.30;29.97;103584.03;5085482;28;20057;-42
2024/01/27 10:53:07;;;;;;;23.90;7.63;;;;;;;28.36;29.92;103582.06;5082045;28;20024;-44
2024/01/27 10:55:34;;;;;;;30.17;7.88;;;;;;;28.41;29.87;103585.69;5073956;28;20024;-44
2024/01/27 10:58:01;;;;;;;28.23;7.40;;;;;;;28.53;29.91;103578.97;5084223;28;20055;-44
2024/01/27 11:00:28;;;;;;;28.38;7.85;;;;;;;28.71;29.60;103572.78;5083986;28;20070;-45
2024/01/27 11:02:58;;;;;;;33.97;8.50;;;;;;;29.02;29.27;103577.38;5064980;28;20055;-43
2024/01/27 11:05:24;;;;;;;27.27;6.53;;;;;;;29.22;29.09;103573.59;5080871;28;20492;-45
2024/01/27 11:07:51;;;;;;;30.52;7.20;;;;;;;29.39;28.99;103570.44;5075247;28;20070;-45
2024/01/27 11:10:16;;;;;;;33.63;7.25;;;;;;;29.49;29.16;103566.75;5084772;28;20492;-42
2024/01/27 11:12:42;;;;;;;40.53;7.28;;;;;;;29.57;29.52;103566.13;5083993;28;20085;-48
2024/01/27 11:15:07;;;;;;;25.70;7.22;;;;;;;29.75;29.43;103561.78;5058485;28;20417;-45